createdAt,value
2016-02-02T07:38:04.389Z,69.74
2016-02-02T07:38:31.845Z,70.59
2016-02-02T07:38:45.486Z,71.45
2016-02-02T07:38:59.376Z,71.26
2016-02-02T07:39:16.114Z,71.45
2016-02-02T07:39:29.760Z,71.35
2016-02-02T07:39:43.401Z,71.64
2016-02-02T07:39:57.448Z,71.16
2016-02-02T07:40:11.935Z,70.88
2016-02-02T07:40:25.904Z,70.5
2016-02-02T07:40:40.951Z,70.03
2016-02-02T07:40:55.155Z,69.56
2016-02-02T07:41:26.454Z,70.59
2016-02-02T07:41:41.079Z,70.59
2016-02-02T07:41:55.173Z,70.21
2016-02-02T07:42:08.926Z,70.78
2016-02-02T07:42:51.285Z,69.37
2016-02-02T07:43:08.429Z,69.74
2016-02-02T07:43:21.600Z,68.71
2016-02-02T07:43:34.975Z,68.42
2016-02-02T07:43:49.210Z,68.42
2016-02-02T07:44:06.179Z,67.38
2016-02-02T07:44:34.744Z,67.85
2016-02-02T07:44:48.619Z,68.14
2016-02-02T07:45:02.557Z,67.85
2016-02-02T07:45:16.559Z,67.38
2016-02-02T07:45:30.324Z,68.8
2016-02-02T07:45:47.840Z,70.12
2016-02-02T07:46:01.590Z,70.4
2016-02-02T07:46:15.390Z,70.88
2016-02-02T07:46:32.280Z,71.73
2016-02-02T07:46:45.890Z,71.54
2016-02-02T07:46:59.858Z,71.54
2016-02-02T07:47:13.704Z,71.64
2016-02-02T07:47:41.954Z,72.02
2016-02-02T07:47:56.066Z,71.73
2016-02-02T07:48:10.194Z,70.97
2016-02-02T07:48:24.225Z,70.78
2016-02-02T07:48:38.334Z,70.88
2016-02-02T07:48:55.881Z,71.92
2016-02-02T07:49:09.712Z,72.49
2016-02-02T07:49:23.540Z,73.18
2016-02-02T07:49:40.290Z,73.9
2016-02-02T07:49:54.025Z,73.71
2016-02-02T07:50:08.134Z,73.28
2016-02-02T07:50:22.155Z,72.86
2016-02-02T07:50:36.139Z,71.86
2016-02-02T07:50:50.061Z,71.83
2016-02-02T07:51:06.905Z,71.48
2016-02-02T07:51:20.830Z,71.2
2016-02-02T07:51:34.549Z,70.5
2016-02-02T07:52:02.627Z,70.59
2016-02-02T07:52:16.098Z,69.78
2016-02-02T07:52:30.176Z,69.78
2016-02-02T07:52:44.801Z,69.31
2016-02-02T07:52:58.582Z,68.65
2016-02-02T07:53:12.554Z,68.08
2016-02-02T07:53:26.835Z,68.71
2016-02-02T07:53:40.523Z,68.71
2016-02-02T07:53:54.148Z,68.99
2016-02-02T07:54:22.228Z,68.99
2016-02-02T07:55:18.720Z,68.71
2016-02-02T07:55:35.502Z,68.33
2016-02-02T07:55:49.267Z,68.61
2016-02-02T07:56:03.111Z,69.27
2016-02-02T07:56:17.472Z,70.21
2016-02-02T07:56:59.879Z,69.37
2016-02-02T07:57:13.569Z,69.74
2016-02-02T07:57:27.647Z,69.27
2016-02-02T07:57:42.303Z,70.4
2016-02-02T07:58:38.666Z,70.21
2016-02-02T07:59:20.529Z,70.21
2016-02-02T07:59:34.092Z,70.78
2016-02-02T07:59:49.077Z,69.84
2016-02-02T08:00:02.702Z,69.27
2016-02-02T08:00:16.251Z,68.71
2016-02-02T08:01:12.645Z,65.59
2016-02-02T08:01:26.426Z,65.3
2016-02-02T08:01:40.020Z,65.49
2016-02-02T08:01:53.629Z,66.63
2016-02-02T08:02:07.363Z,65.78
2016-02-02T08:02:21.476Z,65.59
2016-02-02T08:02:49.273Z,65.49
2016-02-02T08:03:17.635Z,64.92
2016-02-02T08:03:31.635Z,64.36
2016-02-02T08:03:48.276Z,63.79
2016-02-02T08:04:02.369Z,63.98
2016-02-02T08:04:16.522Z,64.17
2016-02-02T08:04:30.459Z,64.01
2016-02-02T08:04:44.010Z,64.83
2016-02-02T08:04:57.713Z,65.49
2016-02-02T08:05:11.185Z,65.4
2016-02-02T08:05:39.169Z,65.68
2016-02-02T08:05:56.122Z,66
2016-02-02T08:06:10.312Z,65.81
2016-02-02T08:06:24.327Z,65.62
2016-02-02T08:06:38.437Z,65.34
2016-02-02T08:06:52.533Z,65.43
2016-02-02T08:07:06.876Z,65.43
2016-02-02T08:07:20.349Z,66.35
2016-02-02T08:07:34.099Z,66.85
2016-02-02T08:08:02.318Z,67.32
2016-02-02T08:08:16.789Z,67.22
2016-02-02T08:08:30.695Z,66.75
2016-02-02T08:09:44.369Z,68.36
2016-02-02T08:09:58.712Z,67.79
2016-02-02T08:10:12.465Z,68.27
2016-02-02T08:10:26.450Z,68.74
2016-02-02T08:10:46.919Z,69.59
2016-02-02T08:11:01.856Z,69.49
2016-02-02T08:11:16.125Z,68.08
2016-02-02T08:11:30.140Z,67.79
2016-02-02T08:11:43.953Z,67.32
2016-02-02T08:11:58.297Z,66
2016-02-02T08:12:26.315Z,65.15
2016-02-02T08:12:40.456Z,65.81
2016-02-02T08:12:57.300Z,65.53
2016-02-02T08:14:07.434Z,67.98
2016-02-02T08:14:35.281Z,67.22
2016-02-02T08:14:48.969Z,66.75
2016-02-02T08:15:17.429Z,66.66
2016-02-02T08:15:31.507Z,67.22
2016-02-02T08:15:45.382Z,67.03
2016-02-02T08:15:59.460Z,65.91
2016-02-02T08:16:13.104Z,65.53
2016-02-02T08:16:26.979Z,65.53
2016-02-02T08:17:10.026Z,64.77
2016-02-02T08:17:30.811Z,64.39
2016-02-02T08:17:44.607Z,64.11
2016-02-02T08:17:58.061Z,64.2
2016-02-02T08:18:53.657Z,63.16
2016-02-02T08:19:07.251Z,64.2
2016-02-02T08:19:20.956Z,63.45
2016-02-02T08:19:34.862Z,63.82
2016-02-02T08:19:48.722Z,64.58
2016-02-02T08:20:03.144Z,65.05
2016-02-02T08:20:16.756Z,66.19
2016-02-02T08:20:30.662Z,66
2016-02-02T08:20:45.056Z,65.72
2016-02-02T08:20:59.181Z,64.77
2016-02-02T08:21:15.809Z,63.73
2016-02-02T08:21:29.668Z,62.78
2016-02-02T08:21:43.262Z,62.5
2016-02-02T08:21:56.903Z,62.4
2016-02-02T08:22:10.999Z,61.74
2016-02-02T08:22:24.874Z,61.65
2016-02-02T08:22:38.828Z,60.99
2016-02-02T08:23:21.001Z,60.23
2016-02-02T08:23:48.986Z,61.65
2016-02-02T08:24:05.783Z,62.31
2016-02-02T08:24:19.817Z,62.21
2016-02-02T08:24:33.473Z,62.21
2016-02-02T08:24:47.083Z,62.78
2016-02-02T08:25:01.254Z,63.16
2016-02-02T08:25:18.179Z,63.07
2016-02-02T08:25:31.758Z,62.4
2016-02-02T08:25:49.337Z,62.02
2016-02-02T08:26:03.133Z,62.02
2016-02-02T08:26:16.932Z,62.5
2016-02-02T08:26:44.901Z,63.73
2016-02-02T08:26:58.604Z,64.77
2016-02-02T08:27:12.295Z,65.72
2016-02-02T08:27:26.140Z,66.38
2016-02-02T08:27:39.906Z,66.75
2016-02-02T08:27:56.890Z,66.85
2016-02-02T08:28:10.893Z,66.09
2016-02-02T08:28:24.800Z,66
2016-02-02T08:29:06.456Z,66.38
2016-02-02T08:29:48.098Z,65.15
2016-02-02T08:30:01.645Z,64.77
2016-02-02T08:30:15.527Z,64.67
2016-02-02T08:30:29.652Z,64.86
2016-02-02T08:30:57.980Z,64.96
2016-02-02T08:31:12.186Z,64.2
2016-02-02T08:31:25.952Z,64.58
2016-02-02T08:31:39.124Z,64.77
2016-02-02T08:31:55.749Z,63.92
2016-02-02T08:32:09.546Z,63.82
2016-02-02T08:32:23.282Z,63.82
2016-02-02T08:32:37.017Z,64.86
2016-02-02T08:32:57.095Z,65.05
2016-02-02T08:33:10.688Z,64.96
2016-02-02T08:33:24.488Z,64.2
2016-02-02T08:33:38.051Z,63.92
2016-02-02T08:33:51.957Z,64.2
2016-02-02T08:34:08.598Z,64.58
2016-02-02T08:34:36.585Z,64.77
2016-02-02T08:34:50.663Z,64.67
2016-02-02T08:35:04.569Z,65.15
2016-02-02T08:35:18.151Z,64.67
2016-02-02T08:35:32.026Z,64.48
2016-02-02T08:35:46.151Z,64.58
2016-02-02T08:36:00.338Z,64.58
2016-02-02T08:36:13.949Z,63.92
2016-02-02T08:36:27.965Z,64.2
2016-02-02T08:36:41.606Z,64.39
2016-02-02T08:36:55.309Z,64.58
2016-02-02T08:37:12.093Z,65.05
2016-02-02T08:37:25.671Z,65.24
2016-02-02T08:37:39.546Z,65.62
2016-02-02T08:38:08.249Z,66.38
2016-02-02T08:38:21.862Z,66.38
2016-02-02T08:38:35.502Z,66.09
2016-02-02T08:38:49.784Z,66.28
2016-02-02T08:39:03.799Z,66.09
2016-02-02T08:39:20.583Z,66.85
2016-02-02T08:39:34.255Z,66.66
2016-02-02T08:39:47.802Z,66.66
2016-02-02T08:40:01.333Z,66.09
2016-02-02T08:40:14.929Z,65.62
2016-02-02T08:40:28.851Z,64.96
2016-02-02T08:40:42.570Z,64.86
2016-02-02T08:40:56.164Z,65.05
2016-02-02T08:41:23.823Z,65.24
2016-02-02T08:41:40.401Z,65.24
2016-02-02T08:41:54.027Z,65.05
2016-02-02T08:42:10.652Z,66.28
2016-02-02T08:42:24.530Z,66.47
2016-02-02T08:42:38.342Z,65.53
2016-02-02T08:42:52.217Z,64.77
2016-02-02T08:43:05.796Z,64.48
2016-02-02T08:43:34.251Z,63.92
2016-02-02T08:43:48.063Z,63.73
2016-02-02T08:44:01.610Z,62.97
2016-02-02T08:44:18.504Z,62.69
2016-02-02T08:45:00.597Z,63.64
2016-02-02T08:45:14.897Z,63.92
2016-02-02T08:45:28.522Z,64.48
2016-02-02T08:45:42.600Z,65.15
2016-02-02T08:45:56.210Z,65.56
2016-02-02T08:46:11.038Z,65.53
2016-02-02T08:46:42.152Z,64.61
2016-02-02T08:47:00.559Z,63.85
2016-02-02T08:47:28.562Z,64.14
2016-02-02T08:47:44.093Z,64.14
2016-02-02T08:48:01.077Z,64.9
2016-02-02T08:48:29.080Z,65.47
2016-02-02T08:48:57.205Z,65.75
2016-02-02T08:49:11.690Z,65.94
2016-02-02T08:49:25.848Z,65.84
2016-02-02T08:49:57.285Z,66.41
2016-02-02T08:50:12.195Z,67.07
2016-02-02T08:50:27.991Z,67.07
2016-02-02T08:50:45.226Z,67.45
2016-02-02T08:51:00.429Z,67.07
2016-02-02T08:51:46.403Z,66.13
2016-02-02T08:52:15.812Z,65.09
2016-02-02T08:52:30.468Z,64.8
2016-02-02T08:52:44.577Z,63.85
2016-02-02T08:52:59.296Z,63.48
2016-02-02T08:53:16.283Z,62.91
2016-02-02T08:53:40.314Z,62.63
2016-02-02T08:54:19.253Z,62.72
2016-02-02T08:54:42.894Z,63.67
2016-02-02T08:54:58.003Z,64.14
2016-02-02T08:55:43.851Z,61.68
2016-02-02T08:56:12.466Z,59.79
2016-02-02T08:56:26.966Z,58.94
2016-02-02T08:56:41.841Z,58.47
2016-02-02T08:57:10.091Z,59.03
2016-02-02T08:57:23.954Z,58.84
2016-02-02T08:57:39.376Z,58.84
2016-02-02T08:57:53.398Z,58.84
2016-02-02T08:58:22.009Z,58.37
2016-02-02T08:58:45.119Z,58.18
2016-02-02T08:59:02.931Z,58.18
2016-02-02T08:59:17.919Z,58.28
2016-02-02T08:59:31.794Z,59.03
2016-02-02T09:00:00.387Z,58.84
2016-02-02T09:00:20.937Z,59.6
2016-02-02T09:00:35.250Z,60.36
2016-02-02T09:00:49.265Z,61.02
2016-02-02T09:01:03.625Z,61.4
2016-02-02T09:01:18.878Z,61.15
2016-02-02T09:01:48.347Z,59.06
2016-02-02T09:02:06.128Z,58.97
2016-02-02T09:02:34.239Z,58.11
2016-02-02T09:02:51.177Z,57.71
2016-02-02T09:03:54.603Z,57.42
2016-02-02T09:04:09.181Z,57.42
2016-02-02T09:04:24.480Z,57.52
2016-02-02T09:04:39.433Z,56.85
2016-02-02T09:05:22.234Z,56.38
2016-02-02T09:05:36.484Z,56.85
2016-02-02T09:06:05.062Z,56.2
2016-02-02T09:06:20.095Z,55.53
2016-02-02T09:07:15.442Z,54.02
2016-02-02T09:07:29.739Z,54.11
2016-02-02T09:07:44.321Z,53.45
2016-02-02T09:07:58.867Z,52.88
2016-02-02T09:08:13.213Z,52.69
2016-02-02T09:08:28.119Z,52.31
2016-02-02T09:08:42.432Z,52.03
2016-02-02T09:08:56.198Z,51.65
2016-02-02T09:09:16.076Z,51.65
2016-02-02T09:09:48.279Z,51.84
2016-02-02T09:11:09.407Z,51.18
2016-02-02T09:11:23.160Z,50.99
2016-02-02T09:11:37.332Z,50.99
2016-02-02T09:12:06.628Z,50.71
2016-02-02T09:12:20.851Z,50.61
2016-02-02T09:12:35.336Z,50.33
2016-02-02T09:12:49.445Z,50.04
2016-02-02T09:13:03.617Z,49.76
2016-02-02T09:13:31.776Z,50.42
2016-02-02T09:13:46.871Z,50.8
2016-02-02T09:14:10.824Z,51.75
2016-02-02T09:14:38.874Z,52.88
2016-02-02T09:15:07.077Z,52.12
2016-02-02T09:15:22.141Z,52.98
2016-02-02T09:15:42.126Z,53.17
2016-02-02T09:16:10.016Z,54.96
2016-02-02T09:16:52.473Z,55.08
2016-02-02T09:17:05.958Z,55.46
2016-02-02T09:17:20.508Z,55.94
2016-02-02T09:17:35.164Z,55.65
2016-02-02T09:18:03.680Z,55.56
2016-02-02T09:18:18.088Z,55.84
2016-02-02T09:19:32.311Z,55.37
2016-02-02T09:19:46.519Z,55.68
2016-02-02T09:20:00.362Z,55.11
2016-02-02T09:20:15.100Z,54.14
2016-02-02T09:20:29.662Z,53.41
2016-02-02T09:20:43.912Z,52.72
2016-02-02T09:20:59.022Z,51.68
2016-02-02T09:21:22.664Z,50.82
2016-02-02T09:21:37.227Z,50.35
2016-02-02T09:22:05.742Z,51.3
2016-02-02T09:22:24.136Z,51.2
2016-02-02T09:22:38.105Z,51.77
2016-02-02T09:22:52.448Z,51.68
2016-02-02T09:23:09.636Z,51.96
2016-02-02T09:23:24.232Z,52.25
2016-02-02T09:23:39.372Z,52.44
2016-02-02T09:23:53.950Z,52.91
2016-02-02T09:24:08.154Z,52.06
2016-02-02T09:24:22.923Z,51.87
2016-02-02T09:24:36.939Z,51.77
2016-02-02T09:24:50.923Z,51.96
2016-02-02T09:25:08.017Z,51.77
2016-02-02T09:25:42.597Z,50.82
2016-02-02T09:26:13.816Z,50.45
2016-02-02T09:26:31.241Z,49.6
2016-02-02T09:26:45.147Z,49.12
2016-02-02T09:27:02.600Z,49.5
2016-02-02T09:27:20.590Z,49.88
2016-02-02T09:27:49.231Z,49.98
2016-02-02T09:28:06.856Z,49.88
2016-02-02T09:28:20.811Z,49.5
2016-02-02T09:29:03.405Z,48.39
2016-02-02T09:29:32.033Z,48.58
2016-02-02T09:29:46.799Z,48.39
2016-02-02T09:30:00.627Z,48.2
2016-02-02T09:30:17.880Z,48.49
2016-02-02T09:30:46.411Z,48.77
2016-02-02T09:31:15.444Z,48.01
2016-02-02T09:31:32.757Z,47.44
2016-02-02T09:32:01.257Z,47.34
2016-02-02T09:32:18.822Z,46.5
2016-02-02T09:32:50.166Z,46.02
2016-02-02T09:33:05.010Z,46.28
2016-02-02T09:33:33.138Z,47.04
2016-02-02T09:33:50.138Z,46.85
2016-02-02T09:34:19.234Z,46.94
2016-02-02T09:34:36.625Z,46.94
2016-02-02T09:34:51.484Z,46.75
2016-02-02T09:35:19.566Z,46.94
2016-02-02T09:35:36.769Z,46.66
2016-02-02T09:35:50.987Z,46.4
2016-02-02T09:36:34.100Z,46.21
2016-02-02T09:36:48.787Z,46.12
2016-02-02T09:37:03.772Z,45.72
2016-02-02T09:37:50.634Z,44.79
2016-02-02T09:38:08.791Z,44.67
2016-02-02T09:38:22.481Z,45.15
2016-02-02T09:38:36.699Z,45.17
2016-02-02T09:38:54.996Z,44.98
2016-02-02T09:39:24.031Z,45.34
2016-02-02T09:39:38.687Z,45.74
2016-02-02T09:40:06.499Z,45.93
2016-02-02T09:40:23.751Z,45.43
2016-02-02T09:40:52.673Z,45.05
2016-02-02T09:41:07.236Z,45.72
2016-02-02T09:41:21.426Z,46
2016-02-02T09:41:39.176Z,46.19
2016-02-02T09:41:56.395Z,46.19
2016-02-02T09:42:30.273Z,46.75
2016-02-02T09:42:44.117Z,46.28
2016-02-02T09:42:57.882Z,46.09
2016-02-02T09:43:47.307Z,45.15
2016-02-02T09:44:20.215Z,44.67
2016-02-02T09:44:35.247Z,44.96
2016-02-02T09:44:49.747Z,44.77
2016-02-02T09:45:07.778Z,44.2
2016-02-02T09:45:22.187Z,43.63
2016-02-02T09:45:39.453Z,43.44
2016-02-02T09:45:53.328Z,43.26
2016-02-02T09:46:08.218Z,43.26
2016-02-02T09:46:22.518Z,43.63
2016-02-02T09:46:36.456Z,43.04
2016-02-02T09:47:04.565Z,42.59
2016-02-02T09:47:18.489Z,42.76
2016-02-02T09:47:32.255Z,43.16
2016-02-02T09:47:45.989Z,43.07
2016-02-02T09:48:03.364Z,43.07
2016-02-02T09:48:18.476Z,42.69
2016-02-02T09:48:38.758Z,42.69
2016-02-02T09:49:01.617Z,42.38
2016-02-02T09:49:15.838Z,42.29
2016-02-02T09:49:58.715Z,41.53
2016-02-02T09:50:12.449Z,41.91
2016-02-02T09:50:29.578Z,41.25
2016-02-02T09:50:43.359Z,40.96
2016-02-02T09:51:11.063Z,41.91
2016-02-02T09:51:25.268Z,41.72
2016-02-02T09:51:39.627Z,41.72
2016-02-02T09:51:53.549Z,41.72
2016-02-02T09:52:07.486Z,41.82
2016-02-02T09:52:35.396Z,42.19
2016-02-02T09:52:49.255Z,42.29
2016-02-02T09:53:03.193Z,42.59
2016-02-02T09:53:17.476Z,42.95
2016-02-02T09:53:45.132Z,43.44
2016-02-02T09:53:58.976Z,44.01
2016-02-02T09:54:27.166Z,43.63
2016-02-02T09:54:44.041Z,43.54
2016-02-02T09:54:58.229Z,43.26
2016-02-02T09:55:11.651Z,43.16
2016-02-02T09:55:39.591Z,43.26
2016-02-02T09:55:53.393Z,43.07
2016-02-02T09:56:07.534Z,42.97
2016-02-02T09:56:22.396Z,42.78
2016-02-02T09:56:42.458Z,42.11
2016-02-02T09:56:56.833Z,42.11
2016-02-02T09:57:24.726Z,42.11
2016-02-02T09:57:38.820Z,41.93
2016-02-02T09:57:56.132Z,42.21
2016-02-02T09:58:09.851Z,42.3
2016-02-02T09:58:24.041Z,42.11
2016-02-02T09:58:54.822Z,41.83
2016-02-02T09:59:08.572Z,41.83
2016-02-02T09:59:36.810Z,41.17
2016-02-02T09:59:50.810Z,41.27
2016-02-02T10:00:32.673Z,41.17
2016-02-02T10:00:47.266Z,41.36
2016-02-02T10:01:00.844Z,41.08
2016-02-02T10:01:14.610Z,41.08
2016-02-02T10:01:31.940Z,40.51
2016-02-02T10:01:45.835Z,40.98
2016-02-02T10:02:00.116Z,41.74
2016-02-02T10:02:13.616Z,41.83
2016-02-02T10:02:27.463Z,41.55
2016-02-02T10:02:41.525Z,41.64
2016-02-02T10:02:55.525Z,41.17
2016-02-02T10:03:09.041Z,40.98
2016-02-02T10:03:22.841Z,40.79
2016-02-02T10:03:37.184Z,40.41
2016-02-02T10:04:05.060Z,40.22
2016-02-02T10:04:18.750Z,40.13
2016-02-02T10:04:32.578Z,39.94
2016-02-02T10:04:47.234Z,39.84
2016-02-02T10:05:00.922Z,39.94
2016-02-02T10:05:14.797Z,39.75
2016-02-02T10:05:28.581Z,39.84
2016-02-02T10:05:42.940Z,39.75
2016-02-02T10:06:10.862Z,39.28
2016-02-02T10:06:24.614Z,39.28
2016-02-02T10:06:38.567Z,39.37
2016-02-02T10:06:55.942Z,39.47
2016-02-02T10:07:10.192Z,39.18
2016-02-02T10:07:23.774Z,39.18
2016-02-02T10:08:05.039Z,39.47
2016-02-02T10:08:18.589Z,39.47
2016-02-02T10:08:33.417Z,39.47
2016-02-02T10:08:50.262Z,39.56
2016-02-02T10:09:04.653Z,39.28
2016-02-02T10:09:18.343Z,39.18
2016-02-02T10:09:46.062Z,39
2016-02-02T10:10:14.202Z,39
2016-02-02T10:10:29.892Z,39.09
2016-02-02T10:10:43.408Z,39
2016-02-02T10:10:57.595Z,39.28
2016-02-02T10:11:11.736Z,39.28
2016-02-02T10:11:26.036Z,39.18
2016-02-02T10:11:40.004Z,39.37
2016-02-02T10:12:07.926Z,39.18
2016-02-02T10:12:21.866Z,39.09
2016-02-02T10:13:17.432Z,39.09
2016-02-02T10:13:31.104Z,39.09
2016-02-02T10:13:45.260Z,39
2016-02-02T10:13:59.385Z,39
2016-02-02T10:14:13.151Z,39.09
2016-02-02T10:14:27.106Z,39.37
2016-02-02T10:15:04.059Z,39
2016-02-02T10:15:18.139Z,38.9
2016-02-02T10:15:31.936Z,38.81
2016-02-02T10:15:46.077Z,38.81
2016-02-02T10:16:14.186Z,38.62
2016-02-02T10:16:27.611Z,38.62
2016-02-02T10:16:41.580Z,38.62
2016-02-02T10:16:55.533Z,38.62
2016-02-02T10:17:09.486Z,38.52
2016-02-02T10:17:23.130Z,39
2016-02-02T10:17:37.583Z,38.81
2016-02-02T10:18:05.598Z,39.09
2016-02-02T10:18:18.992Z,39
2016-02-02T10:18:32.601Z,38.62
2016-02-02T10:18:49.445Z,38.62
2016-02-02T10:19:03.336Z,39.09
2016-02-02T10:19:17.150Z,39.18
2016-02-02T10:19:31.525Z,39.47
2016-02-02T10:19:48.322Z,39.18
2016-02-02T10:20:01.916Z,39.28
2016-02-02T10:20:15.760Z,38.81
2016-02-02T10:20:43.778Z,38.33
2016-02-02T10:20:57.388Z,38.43
2016-02-02T10:21:11.106Z,37.86
2016-02-02T10:21:38.796Z,37.57
2016-02-02T10:21:52.905Z,37.19
2016-02-02T10:22:06.671Z,36.82
2016-02-02T10:22:20.768Z,36.72
2016-02-02T10:22:34.611Z,37.19
2016-02-02T10:22:49.002Z,37.38
2016-02-02T10:23:02.721Z,37.48
2016-02-02T10:23:19.349Z,37.76
2016-02-02T10:23:35.958Z,38.14
2016-02-02T10:23:52.927Z,38.24
2016-02-02T10:24:33.586Z,38.43
2016-02-02T10:24:47.446Z,38.05
2016-02-02T10:25:15.821Z,37.67
2016-02-02T10:25:29.760Z,37.48
2016-02-02T10:25:57.494Z,37.67
2016-02-02T10:26:11.666Z,37.67
2016-02-02T10:26:25.283Z,38.24
2016-02-02T10:26:39.783Z,37.95
2016-02-02T10:26:56.954Z,37.67
2016-02-02T10:27:11.189Z,37.86
2016-02-02T10:27:24.926Z,37.19
2016-02-02T10:27:41.911Z,36.82
2016-02-02T10:27:55.629Z,36.82
2016-02-02T10:28:09.739Z,36.72
2016-02-02T10:28:23.445Z,36.63
2016-02-02T10:28:37.085Z,36.63
2016-02-02T10:28:51.242Z,36.63
2016-02-02T10:29:05.148Z,36.15
2016-02-02T10:29:18.775Z,36.25
2016-02-02T10:29:32.572Z,36.35
2016-02-02T10:29:46.634Z,36.35
2016-02-02T10:30:14.494Z,36.54
2016-02-02T10:30:28.262Z,36.15
2016-02-02T10:30:42.028Z,36.15
2016-02-02T10:31:10.044Z,36.15
2016-02-02T10:31:27.109Z,36.35
2016-02-02T10:31:41.172Z,36.35
2016-02-02T10:32:09.112Z,36.35
2016-02-02T10:32:22.787Z,36.44
2016-02-02T10:32:40.068Z,36.06
2016-02-02T10:32:54.178Z,35.77
2016-02-02T10:33:07.881Z,35.58
2016-02-02T10:33:38.992Z,35.49
2016-02-02T10:34:07.117Z,35.32
2016-02-02T10:34:23.182Z,35.13
2016-02-02T10:34:36.740Z,35.3
2016-02-02T10:34:51.068Z,35.11
2016-02-02T10:36:01.087Z,35.49
2016-02-02T10:36:14.618Z,35.79
2016-02-02T10:36:42.871Z,35.41
2016-02-02T10:36:57.246Z,35.6
2016-02-02T10:37:25.624Z,35.32
2016-02-02T10:37:53.624Z,35.79
2016-02-02T10:38:10.655Z,35.22
2016-02-02T10:38:25.251Z,34.94
2016-02-02T10:38:38.985Z,35.13
2016-02-02T10:38:52.673Z,34.75
2016-02-02T10:39:06.876Z,34.28
2016-02-02T10:39:20.553Z,34.66
2016-02-02T10:39:34.287Z,34.19
2016-02-02T10:39:50.865Z,34.09
2016-02-02T10:40:04.740Z,34.19
2016-02-02T10:40:21.555Z,34.09
2016-02-02T10:40:35.914Z,34.07
2016-02-02T10:40:49.852Z,34.17
2016-02-02T10:41:04.008Z,34.55
2016-02-02T10:41:26.777Z,34.07
2016-02-02T10:41:41.339Z,34.38
2016-02-02T10:41:55.042Z,34.09
2016-02-02T10:42:08.964Z,33.71
2016-02-02T10:42:51.279Z,33.71
2016-02-02T10:43:04.779Z,33.71
2016-02-02T10:43:18.469Z,34.19
2016-02-02T10:43:38.500Z,33.71
2016-02-02T10:43:52.641Z,33.71
2016-02-02T10:44:21.175Z,34
2016-02-02T10:44:38.003Z,33.81
2016-02-02T10:44:52.003Z,33.62
2016-02-02T10:45:05.925Z,33.71
2016-02-02T10:45:19.663Z,33.81
2016-02-02T10:45:33.897Z,33.71
2016-02-02T10:46:01.538Z,33.71
2016-02-02T10:46:29.728Z,33.14
2016-02-02T10:46:43.494Z,33.43
2016-02-02T10:46:57.291Z,33.33
2016-02-02T10:47:11.384Z,33.23
2016-02-02T10:48:35.436Z,33.9
2016-02-02T10:48:51.968Z,33.9
2016-02-02T10:49:05.421Z,34
2016-02-02T10:49:33.003Z,35.03
2016-02-02T10:49:46.893Z,35.51
2016-02-02T10:50:03.581Z,35.6
2016-02-02T10:50:16.503Z,35.32
2016-02-02T10:50:33.333Z,35.51
2016-02-02T10:50:47.411Z,35.79
2016-02-02T10:51:01.333Z,35.13
2016-02-02T10:51:14.942Z,35.03
2016-02-02T10:51:28.866Z,34.75
2016-02-02T10:52:10.913Z,34.28
2016-02-02T10:52:25.494Z,34.19
2016-02-02T10:52:39.900Z,34.09
2016-02-02T10:52:53.760Z,33.71
2016-02-02T10:53:07.697Z,33.62
2016-02-02T10:53:21.935Z,33.52
2016-02-02T10:53:35.685Z,33.62
2016-02-02T10:53:49.388Z,33.71
2016-02-02T10:54:03.310Z,33.62
2016-02-02T10:54:17.278Z,33.33
2016-02-02T10:54:34.297Z,33.23
2016-02-02T10:54:48.688Z,33.23
2016-02-02T10:55:05.406Z,33.14
2016-02-02T10:55:19.080Z,33.23
2016-02-02T10:55:32.768Z,33.23
2016-02-02T10:55:46.705Z,33.33
2016-02-02T10:56:14.627Z,32.95
2016-02-02T10:56:27.865Z,32.86
2016-02-02T10:56:41.552Z,32.76
2016-02-02T10:57:07.384Z,32.67
2016-02-02T10:57:24.106Z,32.86
2016-02-02T10:57:37.668Z,32.67
2016-02-02T10:57:50.793Z,32.67
2016-02-02T10:58:04.702Z,32.39
2016-02-02T10:58:18.233Z,32.86
2016-02-02T10:58:32.173Z,32.67
2016-02-02T10:59:00.111Z,32.67
2016-02-02T10:59:13.751Z,32.86
2016-02-02T10:59:31.269Z,33.04
2016-02-02T10:59:44.566Z,33.04
2016-02-02T11:00:01.191Z,33.04
2016-02-02T11:00:18.066Z,33.04
2016-02-02T11:00:45.881Z,33.14
2016-02-02T11:01:02.428Z,32.86
2016-02-02T11:01:16.085Z,32.67
2016-02-02T11:01:32.994Z,32.29
2016-02-02T11:01:46.634Z,32.48
2016-02-02T11:02:00.806Z,32.48
2016-02-02T11:02:14.822Z,32.29
2016-02-02T11:02:42.730Z,31.82
2016-02-02T11:02:56.324Z,31.53
2016-02-02T11:03:10.761Z,31.53
2016-02-02T11:03:24.468Z,31.63
2016-02-02T11:03:37.905Z,31.34
2016-02-02T11:03:51.827Z,31.34
2016-02-02T11:04:05.968Z,31.44
2016-02-02T11:04:33.736Z,31.44
2016-02-02T11:04:50.658Z,31.44
2016-02-02T11:05:04.377Z,31.44
2016-02-02T11:05:18.096Z,31.82
2016-02-02T11:05:46.051Z,31.82
2016-02-02T11:05:59.879Z,31.91
2016-02-02T11:06:13.644Z,32.2
2016-02-02T11:06:27.585Z,31.91
2016-02-02T11:06:41.913Z,31.82
2016-02-02T11:06:58.694Z,32.39
2016-02-02T11:07:12.944Z,32.57
2016-02-02T11:07:25.884Z,32.39
2016-02-02T11:07:42.712Z,32.39
2016-02-02T11:07:56.321Z,32.57
2016-02-02T11:08:10.134Z,32.2
2016-02-02T11:08:27.091Z,32.01
2016-02-02T11:08:40.716Z,32.1
2016-02-02T11:09:08.357Z,31.91
2016-02-02T11:09:22.546Z,32.1
2016-02-02T11:09:36.640Z,31.91
2016-02-02T11:09:50.238Z,32.1
2016-02-02T11:10:08.863Z,32.01
2016-02-02T11:10:22.538Z,32.1
2016-02-02T11:10:36.710Z,31.91
2016-02-02T11:10:49.726Z,31.91
2016-02-02T11:11:17.695Z,31.72
2016-02-02T11:11:31.415Z,31.44
2016-02-02T11:11:45.243Z,31.25
2016-02-02T11:12:13.540Z,31.72
2016-02-02T11:12:27.793Z,31.82
2016-02-02T11:12:57.559Z,31.72
2016-02-02T11:13:11.528Z,31.53
2016-02-02T11:13:25.843Z,31.34
2016-02-02T11:13:39.499Z,31.34
2016-02-02T11:13:53.312Z,31.91
2016-02-02T11:14:07.624Z,31.91
2016-02-02T11:14:21.299Z,32.01
2016-02-02T11:14:35.441Z,31.91
2016-02-02T11:14:48.941Z,32.2
2016-02-02T11:15:02.738Z,32.01
2016-02-02T11:15:16.800Z,32.01
2016-02-02T11:15:30.693Z,31.91
2016-02-02T11:15:44.974Z,32.1
2016-02-02T11:16:13.021Z,32.1
2016-02-02T11:16:29.820Z,32.01
2016-02-02T11:16:57.821Z,32.01
2016-02-02T11:17:41.903Z,32.01
2016-02-02T11:17:55.544Z,31.72
2016-02-02T11:18:26.889Z,31.72
2016-02-02T11:18:40.811Z,31.63
2016-02-02T11:18:54.546Z,31.91
2016-02-02T11:19:22.486Z,32.39
2016-02-02T11:19:39.033Z,32.29
2016-02-02T11:20:24.144Z,32.39
2016-02-02T11:20:37.613Z,32.76
2016-02-02T11:21:19.316Z,32.95
2016-02-02T11:21:47.463Z,32.57
2016-02-02T11:22:01.057Z,32.39
2016-02-02T11:22:14.963Z,31.91
2016-02-02T11:22:28.528Z,31.91
2016-02-02T11:22:42.575Z,31.44
2016-02-02T11:22:56.138Z,31.15
2016-02-02T11:23:09.825Z,31.34
2016-02-02T11:23:23.813Z,31.25
2016-02-02T11:23:40.766Z,30.96
2016-02-02T11:24:08.625Z,31.15
2016-02-02T11:24:22.283Z,31.15
2016-02-02T11:24:49.955Z,31.15
2016-02-02T11:25:06.486Z,31.15
2016-02-02T11:25:20.252Z,31.15
2016-02-02T11:25:33.864Z,31.25
2016-02-02T11:25:48.739Z,30.96
2016-02-02T11:26:01.724Z,31.25
2016-02-02T11:26:15.444Z,31.25
2016-02-02T11:26:32.650Z,31.06
2016-02-02T11:26:46.072Z,31.25
2016-02-02T11:26:59.322Z,31.15
2016-02-02T11:27:18.806Z,30.96
2016-02-02T11:27:32.356Z,30.87
2016-02-02T11:27:45.722Z,30.87
2016-02-02T11:27:59.581Z,31.06
2016-02-02T11:28:27.474Z,31.06
2016-02-02T11:28:41.005Z,31.53
2016-02-02T11:28:54.646Z,31.34
2016-02-02T11:29:08.240Z,31.72
2016-02-02T11:29:22.101Z,31.91
2016-02-02T11:29:35.617Z,31.63
2016-02-02T11:29:49.664Z,31.53
2016-02-02T11:30:03.679Z,31.63
2016-02-02T11:30:17.382Z,31.82
2016-02-02T11:30:45.355Z,31.91
2016-02-02T11:31:16.058Z,32.1
2016-02-02T11:31:29.654Z,31.91
2016-02-02T11:31:43.763Z,31.72
2016-02-02T11:31:57.716Z,31.82
2016-02-02T11:32:11.263Z,31.72
2016-02-02T11:32:25.157Z,31.53
2016-02-02T11:32:38.891Z,31.72
2016-02-02T11:32:52.454Z,31.82
2016-02-02T11:33:09.360Z,31.53
2016-02-02T11:33:26.395Z,31.34
2016-02-02T11:33:40.301Z,31.44
2016-02-02T11:33:54.411Z,31.07
2016-02-02T11:34:08.114Z,31.15
2016-02-02T11:34:22.117Z,31.15
2016-02-02T11:35:03.804Z,30.88
2016-02-02T11:35:17.523Z,31.15
2016-02-02T11:35:45.792Z,30.77
2016-02-02T11:35:59.526Z,30.68
2016-02-02T11:36:13.417Z,30.87
2016-02-02T11:37:09.310Z,31.15
2016-02-02T11:37:25.766Z,31.25
2016-02-02T11:37:43.656Z,31.15
2016-02-02T11:37:56.891Z,31.25
2016-02-02T11:38:10.719Z,31.25